sensor_id;sensor_type;location;lat;lon;timestamp;pressure;altitude;pressure_sealevel;temperature;humidity
59274;BME280;45044;41.572;24.730;2023-03-18T00:01:08;91588.31;;;1.18;100.00
59274;BME280;45044;41.572;24.730;2023-03-18T00:03:35;91582.22;;;0.96;100.00
59274;BME280;45044;41.572;24.730;2023-03-18T00:06:12;91580.84;;;0.90;100.00
59274;BME280;45044;41.572;24.730;2023-03-18T00:08:39;91578.88;;;1.04;100.00
59274;BME280;45044;41.572;24.730;2023-03-18T00:11:08;91572.19;;;1.03;100.00
59274;BME280;45044;41.572;24.730;2023-03-18T00:13:36;91576.91;;;1.01;100.00
59274;BME280;45044;41.572;24.730;2023-03-18T00:16:04;91571.56;;;1.06;100.00
59274;BME280;45044;41.572;24.730;2023-03-18T00:18:32;91563.31;;;1.04;100.00
59274;BME280;45044;41.572;24.730;2023-03-18T00:21:00;91565.47;;;1.02;100.00
59274;BME280;45044;41.572;24.730;2023-03-18T00:23:27;91552.06;;;1.00;100.00
59274;BME280;45044;41.572;24.730;2023-03-18T00:25:55;91549.63;;;0.95;100.00
59274;BME280;45044;41.572;24.730;2023-03-18T00:28:23;91544.91;;;0.97;100.00
59274;BME280;45044;41.572;24.730;2023-03-18T00:30:50;91554.22;;;0.98;100.00
59274;BME280;45044;41.572;24.730;2023-03-18T00:33:17;91548.28;;;0.89;100.00
59274;BME280;45044;41.572;24.730;2023-03-18T00:35:45;91540.19;;;0.90;100.00
59274;BME280;45044;41.572;24.730;2023-03-18T00:38:13;91548.75;;;0.91;100.00
59274;BME280;45044;41.572;24.730;2023-03-18T00:40:51;91545.69;;;0.80;100.00
59274;BME280;45044;41.572;24.730;2023-03-18T00:43:30;91540.22;;;0.81;100.00
59274;BME280;45044;41.572;24.730;2023-03-18T00:45:59;91540.78;;;1.05;100.00
59274;BME280;45044;41.572;24.730;2023-03-18T00:48:26;91530.31;;;0.83;100.00
59274;BME280;45044;41.572;24.730;2023-03-18T00:50:53;91537.56;;;1.17;100.00
59274;BME280;45044;41.572;24.730;2023-03-18T00:53:20;91526.63;;;0.93;100.00
59274;BME280;45044;41.572;24.730;2023-03-18T00:55:47;91529.66;;;1.13;100.00
59274;BME280;45044;41.572;24.730;2023-03-18T00:58:13;91513.97;;;1.10;100.00
59274;BME280;45044;41.572;24.730;2023-03-18T01:00:40;91519.13;;;1.10;100.00
59274;BME280;45044;41.572;24.730;2023-03-18T01:03:07;91514.16;;;0.87;100.00
59274;BME280;45044;41.572;24.730;2023-03-18T01:05:34;91518.25;;;0.88;100.00
59274;BME280;45044;41.572;24.730;2023-03-18T01:08:01;91514.78;;;0.92;100.00
59274;BME280;45044;41.572;24.730;2023-03-18T01:10:28;91515.22;;;0.86;100.00
59274;BME280;45044;41.572;24.730;2023-03-18T01:12:56;91508.03;;;1.00;100.00
59274;BME280;45044;41.572;24.730;2023-03-18T01:15:24;91508.38;;;0.81;100.00
59274;BME280;45044;41.572;24.730;2023-03-18T01:17:51;91513.81;;;1.06;100.00
59274;BME280;45044;41.572;24.730;2023-03-18T01:20:22;91522.56;;;0.83;100.00
59274;BME280;45044;41.572;24.730;2023-03-18T01:22:50;91509.16;;;0.81;100.00
59274;BME280;45044;41.572;24.730;2023-03-18T01:25:17;91506.69;;;0.94;100.00
59274;BME280;45044;41.572;24.730;2023-03-18T01:27:44;91504.34;;;1.19;100.00
59274;BME280;45044;41.572;24.730;2023-03-18T01:30:12;91505.13;;;1.11;100.00
59274;BME280;45044;41.572;24.730;2023-03-18T01:32:39;91508.31;;;1.25;100.00
59274;BME280;45044;41.572;24.730;2023-03-18T01:35:07;91506.19;;;1.10;100.00
59274;BME280;45044;41.572;24.730;2023-03-18T01:37:34;91508.31;;;1.07;100.00
59274;BME280;45044;41.572;24.730;2023-03-18T01:40:04;91511.06;;;1.11;100.00
59274;BME280;45044;41.572;24.730;2023-03-18T01:42:31;91509.13;;;0.99;100.00
59274;BME280;45044;41.572;24.730;2023-03-18T01:47:42;91501.13;;;1.22;100.00
59274;BME280;45044;41.572;24.730;2023-03-18T01:50:12;91505.50;;;1.39;100.00
59274;BME280;45044;41.572;24.730;2023-03-18T01:52:40;91506.34;;;1.13;100.00
59274;BME280;45044;41.572;24.730;2023-03-18T01:55:17;91509.00;;;1.35;100.00
59274;BME280;45044;41.572;24.730;2023-03-18T01:57:47;91513.97;;;1.58;100.00
59274;BME280;45044;41.572;24.730;2023-03-18T02:00:15;91513.53;;;1.55;100.00
59274;BME280;45044;41.572;24.730;2023-03-18T02:02:43;91523.25;;;1.59;100.00
59274;BME280;45044;41.572;24.730;2023-03-18T02:05:14;91511.09;;;1.50;100.00
59274;BME280;45044;41.572;24.730;2023-03-18T02:07:42;91507.50;;;1.34;100.00
59274;BME280;45044;41.572;24.730;2023-03-18T02:10:13;91509.06;;;1.17;100.00
59274;BME280;45044;41.572;24.730;2023-03-18T02:12:43;91505.78;;;0.90;100.00
59274;BME280;45044;41.572;24.730;2023-03-18T02:15:15;91507.91;;;0.88;100.00
59274;BME280;45044;41.572;24.730;2023-03-18T02:17:52;91511.25;;;0.97;100.00
59274;BME280;45044;41.572;24.730;2023-03-18T02:20:34;91506.53;;;0.90;100.00
59274;BME280;45044;41.572;24.730;2023-03-18T02:23:25;91511.75;;;0.73;100.00
59274;BME280;45044;41.572;24.730;2023-03-18T02:28:29;91515.34;;;1.16;100.00
59274;BME280;45044;41.572;24.730;2023-03-18T02:31:00;91516.09;;;1.07;100.00
59274;BME280;45044;41.572;24.730;2023-03-18T02:33:33;91515.34;;;1.16;100.00
59274;BME280;45044;41.572;24.730;2023-03-18T02:36:07;91508.44;;;1.20;100.00
59274;BME280;45044;41.572;24.730;2023-03-18T02:38:40;91502.34;;;1.25;100.00
59274;BME280;45044;41.572;24.730;2023-03-18T02:41:20;91512.69;;;1.34;100.00
59274;BME280;45044;41.572;24.730;2023-03-18T02:43:48;91496.06;;;1.35;100.00
59274;BME280;45044;41.572;24.730;2023-03-18T02:48:46;91499.09;;;1.37;100.00
59274;BME280;45044;41.572;24.730;2023-03-18T02:51:16;91497.78;;;1.30;100.00
59274;BME280;45044;41.572;24.730;2023-03-18T02:53:43;91501.91;;;1.23;100.00
59274;BME280;45044;41.572;24.730;2023-03-18T02:56:10;91518.06;;;1.19;100.00
59274;BME280;45044;41.572;24.730;2023-03-18T02:58:38;91509.22;;;1.21;100.00
59274;BME280;45044;41.572;24.730;2023-03-18T03:01:06;91509.41;;;1.06;100.00
59274;BME280;45044;41.572;24.730;2023-03-18T03:03:34;91506.34;;;1.04;100.00
59274;BME280;45044;41.572;24.730;2023-03-18T03:06:02;91510.56;;;1.27;100.00
59274;BME280;45044;41.572;24.730;2023-03-18T03:08:28;91493.81;;;1.24;100.00
59274;BME280;45044;41.572;24.730;2023-03-18T03:10:56;91504.75;;;1.39;100.00
59274;BME280;45044;41.572;24.730;2023-03-18T03:13:23;91489.81;;;1.36;100.00
59274;BME280;45044;41.572;24.730;2023-03-18T03:15:50;91497.41;;;1.41;100.00
59274;BME280;45044;41.572;24.730;2023-03-18T03:18:17;91496.06;;;1.43;100.00
59274;BME280;45044;41.572;24.730;2023-03-18T03:20:44;91497.00;;;1.30;100.00
59274;BME280;45044;41.572;24.730;2023-03-18T03:23:13;91493.00;;;1.41;100.00
59274;BME280;45044;41.572;24.730;2023-03-18T03:25:41;91495.00;;;1.36;100.00
59274;BME280;45044;41.572;24.730;2023-03-18T03:28:11;91502.91;;;1.39;100.00
59274;BME280;45044;41.572;24.730;2023-03-18T03:30:39;91500.81;;;1.33;100.00
59274;BME280;45044;41.572;24.730;2023-03-18T03:33:06;91505.84;;;1.20;100.00
59274;BME280;45044;41.572;24.730;2023-03-18T03:35:33;91505.09;;;1.28;100.00
59274;BME280;45044;41.572;24.730;2023-03-18T03:38:01;91504.81;;;1.21;100.00
59274;BME280;45044;41.572;24.730;2023-03-18T03:40:29;91507.28;;;1.09;100.00
59274;BME280;45044;41.572;24.730;2023-03-18T03:42:56;91504.19;;;1.24;100.00
59274;BME280;45044;41.572;24.730;2023-03-18T03:45:23;91504.22;;;1.06;100.00
59274;BME280;45044;41.572;24.730;2023-03-18T03:47:50;91502.84;;;1.18;100.00
59274;BME280;45044;41.572;24.730;2023-03-18T03:50:17;91501.31;;;1.17;100.00
59274;BME280;45044;41.572;24.730;2023-03-18T03:52:44;91503.22;;;0.72;100.00
59274;BME280;45044;41.572;24.730;2023-03-18T03:55:14;91487.22;;;0.70;100.00
59274;BME280;45044;41.572;24.730;2023-03-18T03:57:43;91504.13;;;0.67;100.00
59274;BME280;45044;41.572;24.730;2023-03-18T04:00:12;91501.84;;;0.83;100.00
59274;BME280;45044;41.572;24.730;2023-03-18T04:02:40;91498.22;;;0.67;100.00
59274;BME280;45044;41.572;24.730;2023-03-18T04:05:10;91500.19;;;0.61;100.00
59274;BME280;45044;41.572;24.730;2023-03-18T04:07:38;91501.53;;;0.58;100.00
59274;BME280;45044;41.572;24.730;2023-03-18T04:10:08;91502.00;;;0.52;100.00
59274;BME280;45044;41.572;24.730;2023-03-18T04:12:37;91505.53;;;0.47;100.00
59274;BME280;45044;41.572;24.730;2023-03-18T04:15:05;91509.63;;;0.57;100.00
59274;BME280;45044;41.572;24.730;2023-03-18T04:17:33;91512.19;;;0.83;100.00
59274;BME280;45044;41.572;24.730;2023-03-18T04:20:01;91505.78;;;0.90;100.00
59274;BME280;45044;41.572;24.730;2023-03-18T04:22:31;91511.41;;;1.01;100.00
59274;BME280;45044;41.572;24.730;2023-03-18T04:24:57;91518.50;;;1.13;100.00
59274;BME280;45044;41.572;24.730;2023-03-18T04:27:25;91516.88;;;1.08;100.00
59274;BME280;45044;41.572;24.730;2023-03-18T04:29:53;91523.09;;;1.16;100.00
59274;BME280;45044;41.572;24.730;2023-03-18T04:32:20;91524.47;;;1.13;100.00
59274;BME280;45044;41.572;24.730;2023-03-18T04:34:47;91518.66;;;1.16;100.00
59274;BME280;45044;41.572;24.730;2023-03-18T04:37:14;91515.03;;;1.09;100.00
59274;BME280;45044;41.572;24.730;2023-03-18T04:39:47;91524.16;;;1.06;100.00
59274;BME280;45044;41.572;24.730;2023-03-18T04:42:14;91502.00;;;0.87;100.00
59274;BME280;45044;41.572;24.730;2023-03-18T04:44:43;91526.88;;;1.18;100.00
59274;BME280;45044;41.572;24.730;2023-03-18T04:47:11;91520.06;;;1.05;100.00
59274;BME280;45044;41.572;24.730;2023-03-18T04:49:39;91520.06;;;1.14;100.00
59274;BME280;45044;41.572;24.730;2023-03-18T04:52:06;91526.44;;;1.25;100.00
59274;BME280;45044;41.572;24.730;2023-03-18T04:54:33;91525.84;;;1.11;100.00
59274;BME280;45044;41.572;24.730;2023-03-18T04:57:00;91524.94;;;1.06;100.00
59274;BME280;45044;41.572;24.730;2023-03-18T04:59:27;91526.78;;;0.97;100.00
59274;BME280;45044;41.572;24.730;2023-03-18T05:01:54;91524.94;;;1.06;100.00
59274;BME280;45044;41.572;24.730;2023-03-18T05:04:21;91532.44;;;0.90;100.00
59274;BME280;45044;41.572;24.730;2023-03-18T05:06:47;91529.16;;;1.20;100.00
59274;BME280;45044;41.572;24.730;2023-03-18T05:09:14;91533.59;;;1.19;100.00
59274;BME280;45044;41.572;24.730;2023-03-18T05:11:41;91534.06;;;1.13;100.00
59274;BME280;45044;41.572;24.730;2023-03-18T05:14:08;91536.78;;;1.25;100.00
59274;BME280;45044;41.572;24.730;2023-03-18T05:16:35;91527.56;;;0.98;100.00
59274;BME280;45044;41.572;24.730;2023-03-18T05:19:02;91530.00;;;0.94;100.00
59274;BME280;45044;41.572;24.730;2023-03-18T05:21:29;91519.13;;;1.10;100.00
59274;BME280;45044;41.572;24.730;2023-03-18T05:23:56;91525.03;;;1.28;100.00
59274;BME280;45044;41.572;24.730;2023-03-18T05:26:23;91532.78;;;1.37;100.00
59274;BME280;45044;41.572;24.730;2023-03-18T05:28:50;91529.88;;;1.38;100.00
59274;BME280;45044;41.572;24.730;2023-03-18T05:31:18;91535.78;;;1.48;100.00
59274;BME280;45044;41.572;24.730;2023-03-18T05:33:45;91541.09;;;1.60;100.00
59274;BME280;45044;41.572;24.730;2023-03-18T05:36:12;91539.00;;;1.45;100.00
59274;BME280;45044;41.572;24.730;2023-03-18T05:38:39;91541.56;;;1.53;100.00
59274;BME280;45044;41.572;24.730;2023-03-18T05:41:06;91537.03;;;1.50;100.00
59274;BME280;45044;41.572;24.730;2023-03-18T05:43:33;91544.69;;;1.38;100.00
59274;BME280;45044;41.572;24.730;2023-03-18T05:46:00;91545.72;;;1.37;100.00
59274;BME280;45044;41.572;24.730;2023-03-18T05:48:27;91534.31;;;1.38;100.00
59274;BME280;45044;41.572;24.730;2023-03-18T05:50:53;91536.63;;;1.30;100.00
59274;BME280;45044;41.572;24.730;2023-03-18T05:53:20;91545.09;;;1.49;100.00
59274;BME280;45044;41.572;24.730;2023-03-18T05:55:47;91539.50;;;1.38;100.00
59274;BME280;45044;41.572;24.730;2023-03-18T05:58:14;91541.34;;;1.28;100.00
59274;BME280;45044;41.572;24.730;2023-03-18T06:00:41;91549.03;;;1.55;100.00
59274;BME280;45044;41.572;24.730;2023-03-18T06:03:08;91542.56;;;1.22;100.00
59274;BME280;45044;41.572;24.730;2023-03-18T06:05:35;91548.66;;;1.26;100.00
59274;BME280;45044;41.572;24.730;2023-03-18T06:08:02;91547.38;;;1.50;100.00
59274;BME280;45044;41.572;24.730;2023-03-18T06:10:29;91554.56;;;1.84;100.00
59274;BME280;45044;41.572;24.730;2023-03-18T06:12:56;91542.84;;;2.08;100.00
59274;BME280;45044;41.572;24.730;2023-03-18T06:15:23;91535.91;;;1.99;99.13
59274;BME280;45044;41.572;24.730;2023-03-18T06:17:51;91536.25;;;1.89;100.00
59274;BME280;45044;41.572;24.730;2023-03-18T06:20:19;91533.13;;;2.05;98.17
59274;BME280;45044;41.572;24.730;2023-03-18T06:22:46;91537.66;;;2.38;90.41
59274;BME280;45044;41.572;24.730;2023-03-18T06:25:20;91528.47;;;2.62;84.47
59274;BME280;45044;41.572;24.730;2023-03-18T06:27:47;91531.84;;;2.96;79.79
59274;BME280;45044;41.572;24.730;2023-03-18T06:30:15;91533.31;;;3.78;67.73
59274;BME280;45044;41.572;24.730;2023-03-18T06:32:42;91524.31;;;4.25;66.78
59274;BME280;45044;41.572;24.730;2023-03-18T06:35:10;91527.22;;;4.24;65.65
59274;BME280;45044;41.572;24.730;2023-03-18T06:37:38;91530.28;;;3.88;69.29
59274;BME280;45044;41.572;24.730;2023-03-18T06:40:06;91526.00;;;4.75;69.96
59274;BME280;45044;41.572;24.730;2023-03-18T06:42:34;91521.41;;;5.74;63.85
59274;BME280;45044;41.572;24.730;2023-03-18T06:45:01;91527.78;;;5.77;63.40
59274;BME280;45044;41.572;24.730;2023-03-18T06:47:28;91527.19;;;5.67;61.64
59274;BME280;45044;41.572;24.730;2023-03-18T06:49:54;91522.31;;;6.50;60.43
59274;BME280;45044;41.572;24.730;2023-03-18T06:52:22;91515.28;;;6.90;58.20
59274;BME280;45044;41.572;24.730;2023-03-18T06:54:49;91508.94;;;7.35;58.53
59274;BME280;45044;41.572;24.730;2023-03-18T06:57:17;91507.47;;;8.62;56.02
59274;BME280;45044;41.572;24.730;2023-03-18T06:59:44;91508.44;;;10.55;50.77
59274;BME280;45044;41.572;24.730;2023-03-18T07:02:11;91506.84;;;10.43;48.51
59274;BME280;45044;41.572;24.730;2023-03-18T07:04:38;91504.66;;;10.00;48.70
59274;BME280;45044;41.572;24.730;2023-03-18T07:07:05;91511.28;;;10.32;47.20
59274;BME280;45044;41.572;24.730;2023-03-18T07:09:32;91505.91;;;8.03;51.47
59274;BME280;45044;41.572;24.730;2023-03-18T07:11:59;91498.91;;;11.10;48.44
59274;BME280;45044;41.572;24.730;2023-03-18T07:14:27;91495.81;;;12.94;44.21
59274;BME280;45044;41.572;24.730;2023-03-18T07:16:54;91494.38;;;12.79;43.75
59274;BME280;45044;41.572;24.730;2023-03-18T07:19:21;91498.59;;;12.54;42.24
59274;BME280;45044;41.572;24.730;2023-03-18T07:21:49;91493.28;;;12.62;42.83
59274;BME280;45044;41.572;24.730;2023-03-18T07:24:17;91487.66;;;11.28;43.57
59274;BME280;45044;41.572;24.730;2023-03-18T07:26:46;91494.28;;;13.04;42.48
59274;BME280;45044;41.572;24.730;2023-03-18T07:29:16;91495.94;;;10.37;44.67
59274;BME280;45044;41.572;24.730;2023-03-18T07:31:42;91503.03;;;10.37;45.59
59274;BME280;45044;41.572;24.730;2023-03-18T07:34:10;91495.25;;;11.73;42.48
59274;BME280;45044;41.572;24.730;2023-03-18T07:36:37;91490.00;;;11.81;43.76
59274;BME280;45044;41.572;24.730;2023-03-18T07:39:05;91489.53;;;13.52;40.28
59274;BME280;45044;41.572;24.730;2023-03-18T07:41:33;91475.69;;;11.82;42.51
59274;BME280;45044;41.572;24.730;2023-03-18T07:44:03;91490.44;;;10.61;45.09
59274;BME280;45044;41.572;24.730;2023-03-18T07:46:31;91467.47;;;9.87;46.39
59274;BME280;45044;41.572;24.730;2023-03-18T07:48:57;91489.09;;;8.31;49.20
59274;BME280;45044;41.572;24.730;2023-03-18T07:51:25;91487.28;;;6.71;51.35
59274;BME280;45044;41.572;24.730;2023-03-18T07:53:52;91492.28;;;6.60;53.80
59274;BME280;45044;41.572;24.730;2023-03-18T07:56:19;91493.00;;;6.21;55.21
59274;BME280;45044;41.572;24.730;2023-03-18T07:58:46;91475.44;;;6.38;55.95
59274;BME280;45044;41.572;24.730;2023-03-18T08:01:13;91476.19;;;5.05;57.59
59274;BME280;45044;41.572;24.730;2023-03-18T08:03:45;91483.44;;;5.28;59.46
59274;BME280;45044;41.572;24.730;2023-03-18T08:06:13;91483.72;;;5.39;58.31
59274;BME280;45044;41.572;24.730;2023-03-18T08:08:41;91488.16;;;5.38;56.83
59274;BME280;45044;41.572;24.730;2023-03-18T08:11:08;91491.06;;;5.05;58.40
59274;BME280;45044;41.572;24.730;2023-03-18T08:13:37;91492.03;;;5.61;57.47
59274;BME280;45044;41.572;24.730;2023-03-18T08:16:04;91487.66;;;5.49;57.39
59274;BME280;45044;41.572;24.730;2023-03-18T08:18:32;91489.16;;;5.18;58.47
59274;BME280;45044;41.572;24.730;2023-03-18T08:20:59;91482.69;;;5.60;59.19
59274;BME280;45044;41.572;24.730;2023-03-18T08:23:26;91491.34;;;5.80;56.51
59274;BME280;45044;41.572;24.730;2023-03-18T08:25:52;91475.44;;;5.69;57.72
59274;BME280;45044;41.572;24.730;2023-03-18T08:28:19;91483.00;;;5.91;57.11
59274;BME280;45044;41.572;24.730;2023-03-18T08:30:46;91487.22;;;5.95;55.23
59274;BME280;45044;41.572;24.730;2023-03-18T08:33:13;91483.41;;;5.93;56.38
59274;BME280;45044;41.572;24.730;2023-03-18T08:35:40;91474.53;;;5.61;54.75
59274;BME280;45044;41.572;24.730;2023-03-18T08:38:08;91471.75;;;5.70;57.96
59274;BME280;45044;41.572;24.730;2023-03-18T08:40:35;91482.78;;;5.80;56.37
59274;BME280;45044;41.572;24.730;2023-03-18T08:43:02;91479.50;;;4.61;58.93
59274;BME280;45044;41.572;24.730;2023-03-18T08:45:28;91473.81;;;5.00;59.74
59274;BME280;45044;41.572;24.730;2023-03-18T08:47:55;91484.94;;;5.29;57.95
59274;BME280;45044;41.572;24.730;2023-03-18T08:50:22;91482.13;;;5.06;57.12
59274;BME280;45044;41.572;24.730;2023-03-18T08:52:58;91485.41;;;4.58;60.29
59274;BME280;45044;41.572;24.730;2023-03-18T08:55:33;91488.53;;;4.92;59.47
59274;BME280;45044;41.572;24.730;2023-03-18T08:58:02;91487.69;;;5.04;59.43
59274;BME280;45044;41.572;24.730;2023-03-18T09:00:33;91488.31;;;5.13;58.67
59274;BME280;45044;41.572;24.730;2023-03-18T09:03:00;91488.84;;;5.35;56.58
59274;BME280;45044;41.572;24.730;2023-03-18T09:05:27;91486.38;;;5.10;57.70
59274;BME280;45044;41.572;24.730;2023-03-18T09:07:54;91483.84;;;4.98;59.04
59274;BME280;45044;41.572;24.730;2023-03-18T09:10:20;91482.22;;;4.93;57.57
59274;BME280;45044;41.572;24.730;2023-03-18T09:12:47;91480.78;;;4.96;58.81
59274;BME280;45044;41.572;24.730;2023-03-18T09:15:16;91474.78;;;4.50;59.12
59274;BME280;45044;41.572;24.730;2023-03-18T09:17:43;91479.03;;;4.71;60.63
59274;BME280;45044;41.572;24.730;2023-03-18T09:20:29;91487.09;;;4.66;58.41
59274;BME280;45044;41.572;24.730;2023-03-18T09:22:56;91485.59;;;4.65;59.06
59274;BME280;45044;41.572;24.730;2023-03-18T09:25:22;91483.13;;;4.56;57.74
59274;BME280;45044;41.572;24.730;2023-03-18T09:27:50;91490.22;;;4.43;58.18
59274;BME280;45044;41.572;24.730;2023-03-18T09:30:17;91487.94;;;4.41;59.83
59274;BME280;45044;41.572;24.730;2023-03-18T09:32:44;91483.44;;;4.13;59.16
59274;BME280;45044;41.572;24.730;2023-03-18T09:35:11;91484.53;;;4.00;60.13
59274;BME280;45044;41.572;24.730;2023-03-18T09:37:39;91485.72;;;3.90;61.13
59274;BME280;45044;41.572;24.730;2023-03-18T09:40:07;91479.13;;;3.92;62.02
59274;BME280;45044;41.572;24.730;2023-03-18T09:51:20;91482.47;;;4.05;62.09
59274;BME280;45044;41.572;24.730;2023-03-18T09:54:03;91481.50;;;3.98;64.00
59274;BME280;45044;41.572;24.730;2023-03-18T09:56:58;91485.63;;;3.86;62.42
59274;BME280;45044;41.572;24.730;2023-03-18T09:59:38;91476.72;;;3.87;66.69
59274;BME280;45044;41.572;24.730;2023-03-18T10:02:18;91483.47;;;3.63;61.86
59274;BME280;45044;41.572;24.730;2023-03-18T10:04:54;91462.66;;;3.38;62.95
59274;BME280;45044;41.572;24.730;2023-03-18T10:07:28;91486.47;;;3.53;65.03
59274;BME280;45044;41.572;24.730;2023-03-18T10:10:33;91478.06;;;3.68;64.02
59274;BME280;45044;41.572;24.730;2023-03-18T10:13:09;91488.13;;;3.57;63.98
59274;BME280;45044;41.572;24.730;2023-03-18T10:15:42;91489.94;;;3.32;66.00
59274;BME280;45044;41.572;24.730;2023-03-18T10:18:24;91487.69;;;3.43;69.25
59274;BME280;45044;41.572;24.730;2023-03-18T10:23:48;91498.19;;;3.34;67.31
59274;BME280;45044;41.572;24.730;2023-03-18T10:26:47;91492.53;;;3.19;71.18
59274;BME280;45044;41.572;24.730;2023-03-18T10:32:34;91490.63;;;3.07;71.76
59274;BME280;45044;41.572;24.730;2023-03-18T10:35:37;91497.44;;;2.99;71.05
59274;BME280;45044;41.572;24.730;2023-03-18T10:38:22;91493.44;;;3.02;76.92
59274;BME280;45044;41.572;24.730;2023-03-18T10:40:50;91491.94;;;3.01;75.33
59274;BME280;45044;41.572;24.730;2023-03-18T10:43:19;91496.16;;;3.06;74.42
59274;BME280;45044;41.572;24.730;2023-03-18T10:45:53;91498.72;;;2.93;76.88
59274;BME280;45044;41.572;24.730;2023-03-18T10:48:34;91498.81;;;2.84;81.58
59274;BME280;45044;41.572;24.730;2023-03-18T10:56:14;91501.75;;;2.61;90.75
59274;BME280;45044;41.572;24.730;2023-03-18T10:58:41;91507.28;;;2.60;92.56
59274;BME280;45044;41.572;24.730;2023-03-18T11:01:11;91512.13;;;2.40;100.00
59274;BME280;45044;41.572;24.730;2023-03-18T11:03:47;91506.88;;;2.27;100.00
59274;BME280;45044;41.572;24.730;2023-03-18T11:06:26;91516.03;;;2.03;100.00
59274;BME280;45044;41.572;24.730;2023-03-18T11:09:05;91519.31;;;2.13;100.00
59274;BME280;45044;41.572;24.730;2023-03-18T11:11:34;91511.06;;;1.89;100.00
59274;BME280;45044;41.572;24.730;2023-03-18T11:14:06;91531.69;;;1.86;100.00
59274;BME280;45044;41.572;24.730;2023-03-18T11:16:47;91520.03;;;1.71;100.00
59274;BME280;45044;41.572;24.730;2023-03-18T11:24:33;91543.19;;;1.76;100.00
59274;BME280;45044;41.572;24.730;2023-03-18T11:29:44;91533.31;;;1.60;100.00
59274;BME280;45044;41.572;24.730;2023-03-18T11:32:28;91539.53;;;1.68;100.00
59274;BME280;45044;41.572;24.730;2023-03-18T11:34:58;91532.22;;;1.70;100.00
59274;BME280;45044;41.572;24.730;2023-03-18T11:37:38;91534.97;;;1.65;100.00
59274;BME280;45044;41.572;24.730;2023-03-18T11:42:41;91530.31;;;1.49;100.00
59274;BME280;45044;41.572;24.730;2023-03-18T11:45:22;91530.25;;;1.67;100.00
59274;BME280;45044;41.572;24.730;2023-03-18T11:47:53;91531.22;;;1.53;100.00
59274;BME280;45044;41.572;24.730;2023-03-18T11:50:21;91539.66;;;1.41;100.00
59274;BME280;45044;41.572;24.730;2023-03-18T11:58:45;91546.59;;;1.02;100.00
59274;BME280;45044;41.572;24.730;2023-03-18T12:06:27;91562.72;;;0.90;100.00
59274;BME280;45044;41.572;24.730;2023-03-18T12:11:50;91572.19;;;0.68;100.00
59274;BME280;45044;41.572;24.730;2023-03-18T12:14:39;91575.69;;;0.45;100.00
59274;BME280;45044;41.572;24.730;2023-03-18T12:20:01;91569.59;;;0.41;100.00
59274;BME280;45044;41.572;24.730;2023-03-18T12:28:05;91559.69;;;0.34;100.00
59274;BME280;45044;41.572;24.730;2023-03-18T12:36:28;91570.47;;;1.16;100.00
59274;BME280;45044;41.572;24.730;2023-03-18T12:46:56;91557.59;;;1.86;100.00
59274;BME280;45044;41.572;24.730;2023-03-18T12:49:49;91559.22;;;1.99;100.00
59274;BME280;45044;41.572;24.730;2023-03-18T12:55:11;91555.22;;;1.72;100.00
59274;BME280;45044;41.572;24.730;2023-03-18T12:57:57;91549.66;;;1.91;100.00
59274;BME280;45044;41.572;24.730;2023-03-18T13:00:33;91544.72;;;2.07;100.00
59274;BME280;45044;41.572;24.730;2023-03-18T13:03:21;91545.53;;;2.20;100.00
59274;BME280;45044;41.572;24.730;2023-03-18T13:06:05;91547.78;;;2.31;100.00
59274;BME280;45044;41.572;24.730;2023-03-18T13:15:00;91537.91;;;3.01;100.00
59274;BME280;45044;41.572;24.730;2023-03-18T13:17:34;91539.97;;;3.29;100.00
59274;BME280;45044;41.572;24.730;2023-03-18T13:20:26;91533.94;;;3.50;100.00
59274;BME280;45044;41.572;24.730;2023-03-18T13:26:07;91535.91;;;4.15;100.00
59274;BME280;45044;41.572;24.730;2023-03-18T13:28:49;91528.53;;;4.17;100.00
59274;BME280;45044;41.572;24.730;2023-03-18T13:40:26;91517.94;;;3.73;100.00
59274;BME280;45044;41.572;24.730;2023-03-18T13:42:59;91511.31;;;3.75;100.00
59274;BME280;45044;41.572;24.730;2023-03-18T13:45:36;91514.56;;;3.85;100.00
59274;BME280;45044;41.572;24.730;2023-03-18T13:48:09;91517.25;;;4.13;100.00
59274;BME280;45044;41.572;24.730;2023-03-18T13:50:41;91507.84;;;3.83;100.00
59274;BME280;45044;41.572;24.730;2023-03-18T13:53:27;91505.31;;;3.37;100.00
59274;BME280;45044;41.572;24.730;2023-03-18T13:58:33;91507.31;;;3.06;100.00
59274;BME280;45044;41.572;24.730;2023-03-18T14:03:58;91497.47;;;3.12;100.00
59274;BME280;45044;41.572;24.730;2023-03-18T14:17:37;91499.63;;;3.10;100.00
59274;BME280;45044;41.572;24.730;2023-03-18T14:22:47;91500.03;;;3.71;100.00
59274;BME280;45044;41.572;24.730;2023-03-18T14:25:22;91495.59;;;3.97;100.00
59274;BME280;45044;41.572;24.730;2023-03-18T14:38:40;91504.72;;;3.78;100.00
59274;BME280;45044;41.572;24.730;2023-03-18T14:41:29;91499.06;;;3.63;100.00
59274;BME280;45044;41.572;24.730;2023-03-18T14:46:33;91500.91;;;3.75;100.00
59274;BME280;45044;41.572;24.730;2023-03-18T14:49:42;91503.41;;;3.71;100.00
59274;BME280;45044;41.572;24.730;2023-03-18T14:52:31;91493.00;;;3.71;100.00
59274;BME280;45044;41.572;24.730;2023-03-18T14:55:03;91492.13;;;3.80;100.00
59274;BME280;45044;41.572;24.730;2023-03-18T14:57:33;91488.22;;;3.99;100.00
59274;BME280;45044;41.572;24.730;2023-03-18T15:00:00;91483.47;;;3.88;100.00
59274;BME280;45044;41.572;24.730;2023-03-18T15:02:32;91490.50;;;3.75;100.00
59274;BME280;45044;41.572;24.730;2023-03-18T15:05:00;91489.53;;;3.80;100.00
59274;BME280;45044;41.572;24.730;2023-03-18T15:07:33;91486.19;;;3.79;100.00
59274;BME280;45044;41.572;24.730;2023-03-18T15:10:05;91486.91;;;3.80;100.00
59274;BME280;45044;41.572;24.730;2023-03-18T15:12:32;91493.44;;;3.86;100.00
59274;BME280;45044;41.572;24.730;2023-03-18T15:14:59;91500.56;;;3.77;100.00
59274;BME280;45044;41.572;24.730;2023-03-18T15:17:26;91499.06;;;3.88;100.00